Vendor, Arkansas
Current Conditions -  °F | °C
As of 6:53 PM on Sunday 21 Dec 2014 (Local Time) from KHRO Reporting Station
Overcast Overcast  
Wind Chill: 37°   Ceiling: 3000
Heat Index: 43°   Visibility: 10mi
Dew Point: 36°   Wind: 10mph
Humidity: 76%   Direction: 140°SE
Pressure: 29.9"   Gusts: NA
Location:  35.95°N, 93.08°W
Report Text: KHRO 220053Z AUTO 14009KT 10SM BKN030 OVC060 06/02 A2990 RMK AO2 SLP128 T00610022 $
Loading
Personal Weather Stations






























Interactive Weather Map New forecast layout! Learn more

10-Day Weather Forecast

Advertisements
Track Severe Weather on mobile